createdAt,value
2022-09-23T00:01:39.613Z,57.64
2022-09-23T00:04:07.480Z,56.95
2022-09-23T00:06:35.321Z,60.57
2022-09-23T00:09:03.458Z,66.38
2022-09-23T00:11:33.071Z,66.81
2022-09-23T00:14:01.493Z,63.89
2022-09-23T00:16:34.253Z,61.60
2022-09-23T00:19:03.458Z,58.44
2022-09-23T00:21:31.367Z,57.85
2022-09-23T00:23:59.302Z,59.65
2022-09-23T00:26:27.984Z,65.74
2022-09-23T00:28:55.920Z,66.38
2022-09-23T00:31:26.392Z,63.42
2022-09-23T00:34:04.228Z,61.14
2022-09-23T00:36:32.565Z,57.82
2022-09-23T00:39:00.685Z,57.44
2022-09-23T00:41:28.639Z,59.19
2022-09-23T00:44:00.974Z,65.41
2022-09-23T00:46:36.245Z,66.44
2022-09-23T00:49:11.140Z,62.77
2022-09-23T00:51:45.653Z,60.59
2022-09-23T00:54:13.612Z,57.80
2022-09-23T00:56:41.686Z,57.67
2022-09-23T00:59:10.899Z,59.72
2022-09-23T01:01:39.956Z,66.30
2022-09-23T01:04:08.804Z,66.75
2022-09-23T01:06:36.731Z,63.04
2022-09-23T01:09:04.711Z,60.90
2022-09-23T01:11:54.256Z,58.31
2022-09-23T01:14:37.393Z,57.71
2022-09-23T01:17:24.424Z,58.94
2022-09-23T01:20:20.552Z,65.54
2022-09-23T01:23:11.546Z,66.68
2022-09-23T01:25:41.064Z,63.87
2022-09-23T01:28:19.023Z,61.06
2022-09-23T01:31:24.364Z,58.11
2022-09-23T01:34:04.948Z,56.95
2022-09-23T01:37:08.167Z,64.01
2022-09-23T01:39:39.295Z,64.65
2022-09-23T01:42:29.609Z,61.54
2022-09-23T01:45:15.004Z,57.93
2022-09-23T01:47:55.075Z,57.35
2022-09-23T01:50:51.794Z,64.05
2022-09-23T01:53:43.709Z,64.27
2022-09-23T01:56:32.791Z,61.05
2022-09-23T01:59:10.430Z,57.50
2022-09-23T02:01:51.351Z,58.80
2022-09-23T02:04:51.688Z,64.43
2022-09-23T02:07:30.190Z,65.12
2022-09-23T02:10:06.976Z,61.79
2022-09-23T02:12:38.411Z,58.46
2022-09-23T02:15:12.230Z,58.66
2022-09-23T02:17:49.857Z,63.92
2022-09-23T02:20:24.371Z,64.91
2022-09-23T02:22:56.834Z,62.40
2022-09-23T02:25:35.498Z,61.07
2022-09-23T02:28:11.845Z,57.30
2022-09-23T02:31:00.335Z,57.34
2022-09-23T02:33:36.698Z,58.20
2022-09-23T02:36:19.593Z,65.07
2022-09-23T02:38:59.266Z,66.58
2022-09-23T02:41:37.630Z,62.77
2022-09-23T02:44:12.875Z,60.70
2022-09-23T02:46:43.439Z,57.09
2022-09-23T02:49:24.824Z,56.60
2022-09-23T02:52:00.688Z,57.94
2022-09-23T02:54:29.597Z,64.86
2022-09-23T02:57:02.970Z,65.85
2022-09-23T02:59:31.451Z,62.13
2022-09-23T03:02:14.190Z,60.10
2022-09-23T03:04:50.491Z,56.39
2022-09-23T03:07:49.936Z,56.53
2022-09-23T03:10:26.398Z,58.17
2022-09-23T03:13:04.997Z,66.09
2022-09-23T03:16:00.013Z,66.52
2022-09-23T03:18:51.541Z,62.98
2022-09-23T03:21:54.298Z,61.21
2022-09-23T03:24:25.044Z,57.23
2022-09-23T03:26:55.294Z,57.57
2022-09-23T03:29:23.765Z,59.91
2022-09-23T03:31:53.446Z,65.76
2022-09-23T03:34:27.171Z,67.22
2022-09-23T03:37:01.246Z,64.09
2022-09-23T03:39:51.073Z,61.81
2022-09-23T03:42:23.677Z,60.86
2022-09-23T03:44:57.532Z,58.49
2022-09-23T03:47:27.770Z,58.03
2022-09-23T03:49:56.903Z,64.48
2022-09-23T03:52:26.355Z,65.14
2022-09-23T03:55:51.004Z,62.94
2022-09-23T03:58:38.295Z,64.31
2022-09-23T04:01:06.338Z,62.47
2022-09-23T04:03:34.311Z,61.40
2022-09-23T04:06:02.174Z,60.81
2022-09-23T04:08:30.094Z,58.44
2022-09-23T04:11:02.831Z,59.14
2022-09-23T04:13:32.024Z,63.86
2022-09-23T04:16:00.023Z,65.68
2022-09-23T04:18:28.039Z,63.59
2022-09-23T04:21:02.640Z,62.58
2022-09-23T04:23:30.874Z,60.83
2022-09-23T04:25:58.850Z,60.56
2022-09-23T04:28:26.985Z,60.48
2022-09-23T04:30:56.302Z,60.92
2022-09-23T04:33:25.483Z,60.72
2022-09-23T04:35:55.323Z,60.27
2022-09-23T04:38:23.617Z,60.16
2022-09-23T04:40:51.598Z,60.05
2022-09-23T04:43:23.525Z,57.77
2022-09-23T04:46:03.329Z,58.69
2022-09-23T04:48:31.950Z,64.36
2022-09-23T04:51:04.963Z,65.17
2022-09-23T04:53:33.614Z,62.78
2022-09-23T04:56:29.020Z,61.03
2022-09-23T04:58:58.428Z,60.83
2022-09-23T05:01:29.168Z,60.26
2022-09-23T05:04:02.592Z,59.60
2022-09-23T05:06:32.419Z,57.69
2022-09-23T05:09:00.855Z,60.30
2022-09-23T05:11:31.428Z,64.86
2022-09-23T05:14:00.021Z,65.50
2022-09-23T05:16:28.136Z,61.76
2022-09-23T05:18:56.360Z,58.57
2022-09-23T05:21:27.048Z,59.12
2022-09-23T05:23:59.175Z,64.50
2022-09-23T05:26:30.068Z,64.79
2022-09-23T05:28:58.731Z,62.25
2022-09-23T05:31:29.671Z,60.45
2022-09-23T05:34:00.852Z,60.15
2022-09-23T05:36:35.554Z,58.48
2022-09-23T05:39:07.077Z,59.27
2022-09-23T05:41:36.119Z,64.07
2022-09-23T05:44:04.368Z,65.48
2022-09-23T05:46:33.339Z,62.79
2022-09-23T05:49:03.285Z,61.23
2022-09-23T05:51:34.825Z,60.10
2022-09-23T05:54:08.859Z,57.48
2022-09-23T05:56:37.919Z,58.60
2022-09-23T05:59:06.965Z,64.68
2022-09-23T06:01:36.835Z,65.52
2022-09-23T06:04:08.337Z,62.79
2022-09-23T06:06:41.553Z,60.44
2022-09-23T06:09:16.282Z,56.93
2022-09-23T06:11:44.290Z,59.32
2022-09-23T06:14:14.955Z,65.45
2022-09-23T06:16:43.282Z,63.89
2022-09-23T06:19:11.436Z,61.14
2022-09-23T06:21:41.070Z,60.80
2022-09-23T06:24:09.811Z,58.64
2022-09-23T06:26:38.962Z,59.08
2022-09-23T06:29:11.966Z,62.12
2022-09-23T06:31:41.825Z,67.26
2022-09-23T06:34:13.478Z,64.86
2022-09-23T06:36:45.564Z,60.92
2022-09-23T06:39:15.643Z,60.87
2022-09-23T06:41:45.459Z,58.03
2022-09-23T06:44:14.887Z,58.61
2022-09-23T06:46:43.128Z,64.70
2022-09-23T06:49:12.290Z,65.23
2022-09-23T06:51:41.180Z,62.45
2022-09-23T06:54:09.596Z,61.98
2022-09-23T06:56:39.726Z,60.17
2022-09-23T06:59:13.258Z,57.86
2022-09-23T07:01:41.915Z,58.88
2022-09-23T07:04:10.886Z,65.12
2022-09-23T07:06:39.191Z,65.88
2022-09-23T07:09:08.695Z,63.00
2022-09-23T07:11:37.148Z,61.11
2022-09-23T07:14:05.685Z,58.47
2022-09-23T07:16:33.669Z,58.94
2022-09-23T07:19:01.614Z,62.45
2022-09-23T07:21:29.600Z,66.64
2022-09-23T07:23:58.382Z,64.47
2022-09-23T07:26:26.479Z,61.54
2022-09-23T07:28:57.032Z,59.44
2022-09-23T07:31:37.005Z,57.43
2022-09-23T07:34:07.883Z,60.06
2022-09-23T07:36:37.645Z,65.99
2022-09-23T07:39:05.633Z,65.76
2022-09-23T07:41:34.619Z,61.21
2022-09-23T07:44:03.297Z,60.36
2022-09-23T07:46:33.406Z,58.85
2022-09-23T07:49:05.539Z,58.74
2022-09-23T07:51:39.653Z,60.15
2022-09-23T07:54:13.250Z,65.55
2022-09-23T07:56:47.980Z,63.04
2022-09-23T07:59:18.469Z,60.67
2022-09-23T08:01:49.136Z,58.34
2022-09-23T08:04:24.303Z,58.58
2022-09-23T08:06:55.268Z,61.11
2022-09-23T08:09:27.155Z,66.30
2022-09-23T08:11:56.530Z,63.70
2022-09-23T08:14:24.946Z,61.71
2022-09-23T08:16:53.776Z,60.39
2022-09-23T08:19:21.690Z,58.06
2022-09-23T08:21:52.307Z,59.37
2022-09-23T08:24:24.359Z,61.47
2022-09-23T08:26:54.468Z,66.19
2022-09-23T08:29:25.032Z,65.94
2022-09-23T08:31:53.915Z,61.96
2022-09-23T08:34:24.418Z,57.21
2022-09-23T08:36:52.487Z,58.44
2022-09-23T08:39:21.066Z,62.29
2022-09-23T08:42:13.510Z,64.48
2022-09-23T08:44:53.656Z,58.48
2022-09-23T08:47:32.488Z,55.87
2022-09-23T08:50:11.768Z,58.51
2022-09-23T08:52:58.731Z,61.00
2022-09-23T08:55:42.554Z,62.60
2022-09-23T08:58:26.044Z,59.99
2022-09-23T09:01:10.769Z,57.33
2022-09-23T09:03:59.186Z,59.19
2022-09-23T09:06:53.543Z,61.74
2022-09-23T09:09:33.798Z,58.68
2022-09-23T09:12:24.189Z,56.59
2022-09-23T09:15:02.818Z,61.30
2022-09-23T09:17:38.512Z,64.83
2022-09-23T09:20:17.551Z,61.65
2022-09-23T09:23:00.750Z,57.43
2022-09-23T09:25:49.861Z,58.41
2022-09-23T09:28:27.025Z,59.03
2022-09-23T09:31:00.046Z,61.52
2022-09-23T09:34:03.095Z,57.82
2022-09-23T09:36:45.957Z,55.72
2022-09-23T09:39:15.317Z,59.99
2022-09-23T09:41:50.880Z,61.53
2022-09-23T09:44:27.051Z,62.70
2022-09-23T09:47:36.745Z,59.82
2022-09-23T09:50:11.063Z,54.04
2022-09-23T09:52:39.909Z,57.11
2022-09-23T09:55:13.715Z,56.87
2022-09-23T09:58:06.010Z,57.01
2022-09-23T10:00:43.259Z,57.10
2022-09-23T10:03:38.249Z,57.73
2022-09-23T10:06:17.451Z,56.84
2022-09-23T10:09:13.977Z,59.79
2022-09-23T10:11:42.258Z,58.14
2022-09-23T10:14:18.668Z,62.15
2022-09-23T10:17:05.595Z,63.12
2022-09-23T10:19:37.243Z,55.38
2022-09-23T10:22:17.122Z,54.83
2022-09-23T10:24:49.884Z,54.36
2022-09-23T10:27:27.227Z,53.04
2022-09-23T10:30:01.458Z,54.93
2022-09-23T10:32:40.169Z,54.73
2022-09-23T10:35:14.706Z,57.05
2022-09-23T10:37:49.727Z,55.78
2022-09-23T10:40:36.580Z,54.96
2022-09-23T10:43:35.852Z,55.05
2022-09-23T10:46:27.000Z,55.37
2022-09-23T10:49:13.505Z,55.70
2022-09-23T10:51:56.221Z,55.84
2022-09-23T10:54:32.973Z,53.35
2022-09-23T10:57:36.047Z,53.37
2022-09-23T11:00:22.471Z,52.35
2022-09-23T11:03:19.570Z,50.86
2022-09-23T11:06:20.101Z,50.51
2022-09-23T11:09:28.524Z,49.63
2022-09-23T11:12:21.435Z,50.29
2022-09-23T11:15:33.196Z,50.51
2022-09-23T11:18:35.339Z,51.54
2022-09-23T11:21:15.188Z,50.67
2022-09-23T11:24:05.123Z,50.19
2022-09-23T11:26:42.480Z,47.47
2022-09-23T11:29:33.102Z,47.87
2022-09-23T11:32:28.480Z,48.40
2022-09-23T11:35:24.539Z,48.93
2022-09-23T11:38:01.766Z,49.60
2022-09-23T11:40:42.361Z,50.92
2022-09-23T11:43:18.648Z,50.70
2022-09-23T11:46:02.834Z,50.30
2022-09-23T11:48:43.926Z,47.56
2022-09-23T11:51:21.989Z,47.33
2022-09-23T11:54:35.202Z,45.71
2022-09-23T11:57:07.318Z,46.73
2022-09-23T12:02:30.859Z,47.06
2022-09-23T12:05:08.479Z,47.36
2022-09-23T12:07:57.478Z,47.04
2022-09-23T12:10:57.826Z,46.58
2022-09-23T12:13:49.176Z,47.78
2022-09-23T12:16:49.246Z,45.18
2022-09-23T12:19:39.027Z,44.71
2022-09-23T12:22:42.784Z,45.02
2022-09-23T12:25:31.144Z,43.37
2022-09-23T12:28:11.766Z,45.89
2022-09-23T12:30:40.735Z,47.05
2022-09-23T12:33:26.570Z,48.42
2022-09-23T12:36:06.962Z,47.38
2022-09-23T12:38:38.817Z,45.93
2022-09-23T12:41:29.972Z,45.00
2022-09-23T12:44:15.734Z,43.51
2022-09-23T12:46:45.723Z,41.91
2022-09-23T12:49:37.294Z,41.99
2022-09-23T12:52:17.507Z,42.26
2022-09-23T12:54:47.253Z,43.19
2022-09-23T12:57:33.779Z,43.07
2022-09-23T13:00:12.781Z,42.02
2022-09-23T13:02:47.039Z,41.42
2022-09-23T13:05:44.718Z,42.29
2022-09-23T13:08:15.162Z,41.21
2022-09-23T13:10:49.546Z,41.95
2022-09-23T13:13:26.870Z,42.17
2022-09-23T13:15:55.129Z,42.97
2022-09-23T13:18:25.513Z,42.89
2022-09-23T13:20:55.127Z,42.79
2022-09-23T13:23:28.103Z,43.23
2022-09-23T13:25:59.624Z,42.77
2022-09-23T13:28:41.886Z,41.40
2022-09-23T13:31:16.064Z,41.36
2022-09-23T13:33:49.159Z,41.78
2022-09-23T13:36:18.920Z,42.82
2022-09-23T13:38:47.245Z,42.81
2022-09-23T13:41:17.311Z,42.87
2022-09-23T13:43:52.116Z,42.34
2022-09-23T13:46:25.286Z,42.45
2022-09-23T13:48:54.937Z,43.23
2022-09-23T13:51:34.166Z,43.67
2022-09-23T13:54:05.319Z,43.88
2022-09-23T13:56:36.666Z,44.06
2022-09-23T13:59:16.340Z,44.37
2022-09-23T14:01:47.184Z,44.06
2022-09-23T14:04:26.000Z,44.05
2022-09-23T14:06:54.715Z,43.49
2022-09-23T14:09:29.080Z,43.92
2022-09-23T14:12:00.259Z,44.25
2022-09-23T14:14:30.513Z,44.46
2022-09-23T14:16:59.456Z,42.66
2022-09-23T14:19:27.472Z,42.29
2022-09-23T14:21:56.646Z,43.43
2022-09-23T14:24:30.664Z,43.50
2022-09-23T14:27:16.362Z,39.58
2022-09-23T14:29:49.540Z,40.01
2022-09-23T14:32:21.250Z,40.41
2022-09-23T14:34:50.428Z,40.94
2022-09-23T14:37:37.145Z,41.43
2022-09-23T14:40:17.543Z,42.34
2022-09-23T14:43:03.852Z,43.38
2022-09-23T14:45:40.559Z,43.90
2022-09-23T14:48:23.181Z,43.93
2022-09-23T14:51:02.622Z,43.67
2022-09-23T14:53:40.922Z,43.92
2022-09-23T14:56:08.796Z,43.44
2022-09-23T14:58:55.603Z,42.75
2022-09-23T15:01:35.908Z,41.73
2022-09-23T15:04:28.141Z,40.72
2022-09-23T15:06:59.797Z,42.49
2022-09-23T15:09:31.099Z,43.44
2022-09-23T15:12:15.166Z,43.61
2022-09-23T15:14:46.683Z,44.21
2022-09-23T15:17:35.266Z,45.39
2022-09-23T15:20:08.504Z,46.03
2022-09-23T15:22:48.786Z,46.84
2022-09-23T15:25:22.571Z,47.69
2022-09-23T15:28:08.777Z,47.99
2022-09-23T15:30:38.389Z,48.60
2022-09-23T15:33:07.098Z,48.08
2022-09-23T15:35:36.322Z,46.31
2022-09-23T15:38:04.331Z,45.39
2022-09-23T15:40:35.531Z,43.53
2022-09-23T15:43:21.174Z,42.21
2022-09-23T15:45:53.379Z,41.68
2022-09-23T15:48:28.969Z,41.30
2022-09-23T15:50:59.307Z,40.71
2022-09-23T15:53:28.312Z,38.49
2022-09-23T15:55:58.732Z,38.10
2022-09-23T15:58:27.800Z,37.94
2022-09-23T16:00:57.258Z,37.24
2022-09-23T16:03:28.782Z,36.74
2022-09-23T16:06:01.347Z,36.23
2022-09-23T16:08:32.481Z,37.61
2022-09-23T16:11:00.548Z,38.68
2022-09-23T16:13:28.631Z,38.82
2022-09-23T16:15:56.644Z,39.50
2022-09-23T16:18:24.676Z,39.35
2022-09-23T16:20:52.677Z,40.42
2022-09-23T16:23:35.818Z,44.19
2022-09-23T16:26:06.589Z,45.11
2022-09-23T16:28:34.920Z,47.16
2022-09-23T16:31:03.238Z,49.17
2022-09-23T16:33:31.131Z,52.27
2022-09-23T16:36:02.385Z,53.05
2022-09-23T16:38:32.084Z,54.29
2022-09-23T16:41:00.824Z,55.78
2022-09-23T16:43:32.786Z,56.58
2022-09-23T16:46:01.297Z,58.03
2022-09-23T16:48:29.381Z,59.24
2022-09-23T16:50:57.414Z,60.44
2022-09-23T16:53:29.825Z,66.02
2022-09-23T16:56:00.545Z,69.51
2022-09-23T16:58:28.653Z,65.07
2022-09-23T17:01:16.649Z,59.81
2022-09-23T17:03:44.601Z,57.00
2022-09-23T17:06:13.746Z,58.98
2022-09-23T17:08:42.973Z,61.56
2022-09-23T17:11:11.121Z,67.25
2022-09-23T17:13:42.551Z,68.83
2022-09-23T17:16:21.745Z,65.05
2022-09-23T17:18:49.843Z,60.48
2022-09-23T17:21:17.849Z,58.22
2022-09-23T17:23:45.798Z,59.85
2022-09-23T17:26:15.283Z,65.21
2022-09-23T17:28:43.257Z,67.73
2022-09-23T17:31:11.287Z,59.95
2022-09-23T17:33:39.589Z,58.87
2022-09-23T17:36:09.700Z,60.91
2022-09-23T17:38:41.250Z,64.12
2022-09-23T17:41:10.020Z,66.41
2022-09-23T17:43:39.047Z,60.64
2022-09-23T17:46:10.271Z,58.16
2022-09-23T17:48:41.552Z,59.72
2022-09-23T17:51:17.563Z,63.77
2022-09-23T17:53:47.741Z,66.16
2022-09-23T17:56:15.627Z,63.84
2022-09-23T17:58:46.191Z,58.48
2022-09-23T18:01:19.819Z,60.12
2022-09-23T18:03:48.901Z,63.88
2022-09-23T18:06:19.442Z,63.13
2022-09-23T18:08:49.639Z,60.82
2022-09-23T18:11:21.270Z,58.71
2022-09-23T18:13:52.771Z,61.45
2022-09-23T18:16:23.174Z,64.37
2022-09-23T18:18:56.066Z,62.57
2022-09-23T18:21:27.270Z,60.50
2022-09-23T18:23:59.818Z,58.91
2022-09-23T18:26:35.309Z,62.42
2022-09-23T18:29:04.199Z,64.87
2022-09-23T18:31:35.437Z,62.49
2022-09-23T18:34:07.002Z,60.13
2022-09-23T18:36:35.180Z,58.47
2022-09-23T18:39:03.925Z,60.64
2022-09-23T18:41:32.064Z,65.35
2022-09-23T18:44:00.251Z,64.14
2022-09-23T18:46:30.206Z,61.20
2022-09-23T18:49:18.164Z,60.40
2022-09-23T18:51:56.030Z,59.13
2022-09-23T18:54:28.209Z,62.91
2022-09-23T18:56:56.839Z,64.14
2022-09-23T18:59:29.965Z,62.82
2022-09-23T19:01:59.683Z,60.19
2022-09-23T19:04:29.342Z,58.26
2022-09-23T19:06:58.213Z,57.41
2022-09-23T19:09:26.684Z,63.87
2022-09-23T19:11:54.911Z,65.78
2022-09-23T19:14:23.808Z,63.92
2022-09-23T19:16:52.218Z,61.36
2022-09-23T19:19:20.383Z,58.75
2022-09-23T19:21:48.523Z,60.29
2022-09-23T19:24:20.364Z,64.11
2022-09-23T19:26:50.432Z,65.34
2022-09-23T19:29:23.323Z,62.31
2022-09-23T19:31:51.364Z,59.38
2022-09-23T19:34:24.054Z,56.21
2022-09-23T19:36:53.065Z,57.18
2022-09-23T19:39:23.674Z,62.16
2022-09-23T19:41:52.809Z,63.81
2022-09-23T19:44:21.039Z,62.30
2022-09-23T19:46:55.112Z,58.45
2022-09-23T19:49:26.833Z,59.24
2022-09-23T19:51:56.347Z,63.29
2022-09-23T19:54:27.774Z,64.57
2022-09-23T19:56:56.461Z,61.44
2022-09-23T19:59:26.687Z,61.35
2022-09-23T20:01:55.046Z,57.85
2022-09-23T20:04:23.414Z,59.10
2022-09-23T20:06:51.756Z,63.18
2022-09-23T20:09:19.793Z,63.97
2022-09-23T20:11:47.866Z,61.66
2022-09-23T20:14:15.786Z,61.18
2022-09-23T20:16:44.446Z,58.66
2022-09-23T20:19:13.090Z,61.78
2022-09-23T20:21:41.037Z,65.27
2022-09-23T20:24:09.752Z,63.87
2022-09-23T20:26:56.415Z,61.58
2022-09-23T20:29:24.401Z,60.01
2022-09-23T20:31:52.407Z,58.40
2022-09-23T20:34:21.311Z,60.00
2022-09-23T20:36:49.305Z,62.85
2022-09-23T20:39:17.844Z,64.18
2022-09-23T20:41:46.251Z,61.66
2022-09-23T20:44:14.615Z,57.82
2022-09-23T20:46:48.465Z,58.77
2022-09-23T20:49:18.077Z,63.48
2022-09-23T20:51:50.542Z,64.74
2022-09-23T20:54:19.347Z,62.44
2022-09-23T20:56:48.805Z,60.94
2022-09-23T20:59:18.427Z,58.50
2022-09-23T21:01:47.906Z,61.35
2022-09-23T21:04:16.287Z,64.95
2022-09-23T21:06:44.317Z,64.47
2022-09-23T21:09:12.487Z,63.41
2022-09-23T21:11:40.701Z,61.48
2022-09-23T21:14:08.771Z,58.27
2022-09-23T21:16:36.873Z,57.82
2022-09-23T21:19:08.120Z,63.48
2022-09-23T21:21:36.426Z,66.01
2022-09-23T21:24:31.342Z,63.22
2022-09-23T21:26:52.614Z,61.62
2022-09-23T21:29:20.634Z,60.56
2022-09-23T21:31:49.839Z,57.55
2022-09-23T21:34:19.442Z,58.08
2022-09-23T21:36:48.137Z,61.98
2022-09-23T21:39:16.309Z,63.35
2022-09-23T21:41:44.396Z,62.37
2022-09-23T21:44:12.300Z,61.49
2022-09-23T21:46:40.312Z,58.76
2022-09-23T21:49:09.294Z,60.98
2022-09-23T21:51:41.350Z,65.01
2022-09-23T21:54:16.015Z,63.91
2022-09-23T21:56:44.610Z,62.89
2022-09-23T21:59:13.051Z,61.28
2022-09-23T22:01:45.207Z,58.58
2022-09-23T22:04:19.186Z,61.34
2022-09-23T22:06:49.741Z,65.33
2022-09-23T22:09:20.023Z,64.69
2022-09-23T22:12:09.787Z,63.28
2022-09-23T22:14:39.186Z,62.31
2022-09-23T22:17:10.628Z,58.47
2022-09-23T22:19:45.857Z,59.01
2022-09-23T22:22:17.829Z,63.51
2022-09-23T22:24:47.794Z,64.87
2022-09-23T22:27:18.243Z,62.45
2022-09-23T22:30:04.745Z,61.13
2022-09-23T22:32:43.660Z,58.22
2022-09-23T22:35:16.826Z,59.82
2022-09-23T22:37:46.254Z,64.32
2022-09-23T22:40:15.738Z,65.38
2022-09-23T22:42:44.237Z,63.36
2022-09-23T22:45:13.349Z,60.20
2022-09-23T22:47:45.618Z,58.38
2022-09-23T22:50:14.865Z,60.05
2022-09-23T22:52:43.410Z,64.15
2022-09-23T22:55:12.315Z,65.91
2022-09-23T22:57:40.233Z,62.87
2022-09-23T23:00:09.568Z,61.40
2022-09-23T23:02:37.590Z,57.82
2022-09-23T23:05:06.043Z,56.71
2022-09-23T23:07:36.315Z,61.38
2022-09-23T23:10:04.799Z,66.77
2022-09-23T23:12:33.689Z,66.66
2022-09-23T23:15:01.678Z,62.40
2022-09-23T23:17:30.044Z,61.71
2022-09-23T23:19:58.104Z,60.41
2022-09-23T23:22:28.671Z,58.43
2022-09-23T23:24:56.928Z,60.53
2022-09-23T23:27:24.841Z,64.74
2022-09-23T23:29:52.929Z,65.47
2022-09-23T23:32:20.836Z,62.90
2022-09-23T23:34:48.812Z,61.43
2022-09-23T23:37:20.618Z,58.82
2022-09-23T23:39:48.948Z,60.27
2022-09-23T23:42:17.158Z,64.70
2022-09-23T23:44:45.284Z,65.09
2022-09-23T23:47:13.197Z,63.47
2022-09-23T23:49:41.212Z,61.00
2022-09-23T23:52:09.247Z,59.01
2022-09-23T23:54:38.065Z,60.85
2022-09-23T23:57:06.033Z,64.22
2022-09-23T23:59:34.534Z,65.39
